Terminal Aerodrome Forecast
Issued by NWS

Home | Current Version | Previous Version | Text Only | Print | Product List | Glossary On
Versions: 1 2 3 4 5 6 7 8 9 10 11 12 13 14 15 16 17 18 19 20 21 22 23 24 25 26
472
FTUS41 KRLX 240544
TAFCKB
TAF
KCKB 240544Z 2406/2506 21004KT P6SM SCT025 BKN050
     FM240800 22004KT 3SM BR SCT010
     FM241300 25005KT P6SM SCT050
     FM241700 26008KT P6SM BKN050
     FM242300 30005KT P6SM SCT100=

USA.gov is the U.S. government's official web portal to all federal, state and local government web resources and services.